Time,TemperatureF,DewpointF,PressureIn,WindDirection,WindDirectionDegrees,WindSpeedMPH,WindSpeedGustMPH,Humidity,HourlyPrecipIn,Conditions,Clouds,dailyrainin,SolarRadiationWatts/m^2,SoftwareType,DateUTC
2013-04-08 00:02:00,66.0,59.0,-100.00,SSE,162,13.0,25.0,78,0.00,,,0.00,0.000000,,2013-04-08 05:02:00,
2013-04-08 00:12:00,66.0,59.0,-100.00,SSE,162,13.0,25.0,78,0.00,,,0.00,0.000000,,2013-04-08 05:12:00,
2013-04-08 00:22:00,66.0,59.0,-100.00,SSE,162,13.0,25.0,78,0.00,,,0.00,0.000000,,2013-04-08 05:22:00,
2013-04-08 00:32:00,66.0,59.0,-100.00,SSE,162,13.0,25.0,78,0.00,,,0.00,0.000000,,2013-04-08 05:32:00,
2013-04-08 01:02:00,66.0,60.0,-100.00,SSE,164,15.0,24.0,81,0.00,,,0.00,0.000000,,2013-04-08 06:02:00,
2013-04-08 01:12:00,66.0,60.0,-100.00,SSE,164,15.0,24.0,81,0.00,,,0.00,0.000000,,2013-04-08 06:12:00,
2013-04-08 01:22:00,66.0,60.0,-100.00,SSE,164,15.0,24.0,81,0.00,,,0.00,0.000000,,2013-04-08 06:22:00,
2013-04-08 01:32:00,66.0,60.0,-100.00,SSE,164,15.0,24.0,81,0.00,,,0.00,0.000000,,2013-04-08 06:32:00,
2013-04-08 02:02:00,65.0,59.0,-100.00,SSE,168,16.0,28.0,82,0.00,,,0.00,0.000000,,2013-04-08 07:02:00,
2013-04-08 02:12:00,65.0,59.0,-100.00,SSE,168,16.0,28.0,82,0.00,,,0.00,0.000000,,2013-04-08 07:12:00,
2013-04-08 02:22:00,65.0,59.0,-100.00,SSE,168,16.0,28.0,82,0.00,,,0.00,0.000000,,2013-04-08 07:22:00,
2013-04-08 02:33:00,65.0,59.0,-100.00,SSE,168,16.0,28.0,82,0.00,,,0.00,0.000000,,2013-04-08 07:33:00,
2013-04-08 03:02:00,64.0,59.0,-100.00,South,175,16.0,28.0,85,0.00,,,0.00,0.000000,,2013-04-08 08:02:00,
2013-04-08 03:12:00,64.0,59.0,-100.00,South,175,16.0,28.0,85,0.00,,,0.00,0.000000,,2013-04-08 08:12:00,
2013-04-08 03:22:00,64.0,59.0,-100.00,South,175,16.0,28.0,85,0.00,,,0.00,0.000000,,2013-04-08 08:22:00,
2013-04-08 03:32:00,64.0,59.0,-100.00,South,175,16.0,28.0,85,0.00,,,0.00,0.000000,,2013-04-08 08:32:00,
2013-04-08 04:02:00,64.0,59.0,-100.00,South,177,16.0,29.0,83,0.00,,,0.00,0.000000,,2013-04-08 09:02:00,
2013-04-08 04:12:00,64.0,59.0,-100.00,South,177,16.0,29.0,83,0.00,,,0.00,0.000000,,2013-04-08 09:12:00,
2013-04-08 04:22:00,64.0,59.0,-100.00,South,177,16.0,29.0,83,0.00,,,0.00,0.000000,,2013-04-08 09:22:00,
2013-04-08 04:33:00,64.0,59.0,-100.00,South,177,16.0,29.0,83,0.00,,,0.00,0.000000,,2013-04-08 09:33:00,
2013-04-08 05:03:00,64.0,59.0,-100.00,South,175,14.0,25.0,84,0.00,,,0.00,0.000000,,2013-04-08 10:03:00,
2013-04-08 05:13:00,64.0,59.0,-100.00,South,175,14.0,25.0,84,0.00,,,0.00,0.000000,,2013-04-08 10:13:00,
2013-04-08 05:23:00,64.0,59.0,-100.00,South,175,14.0,25.0,84,0.00,,,0.00,0.000000,,2013-04-08 10:23:00,
2013-04-08 05:33:00,64.0,59.0,-100.00,South,175,14.0,25.0,84,0.00,,,0.00,0.000000,,2013-04-08 10:33:00,
2013-04-08 06:02:00,64.0,60.0,-100.00,SSE,168,11.0,20.0,87,0.00,,,0.00,0.000000,,2013-04-08 11:02:00,
2013-04-08 06:12:00,64.0,60.0,-100.00,SSE,168,11.0,20.0,87,0.00,,,0.00,0.000000,,2013-04-08 11:12:00,
2013-04-08 06:22:00,64.0,60.0,-100.00,SSE,168,11.0,20.0,87,0.00,,,0.00,0.000000,,2013-04-08 11:22:00,
2013-04-08 06:32:00,64.0,60.0,-100.00,SSE,168,11.0,20.0,87,0.00,,,0.00,0.000000,,2013-04-08 11:32:00,
2013-04-08 07:03:00,64.0,61.0,-100.00,SSE,167,12.0,19.0,89,0.00,,,0.00,0.000000,,2013-04-08 12:03:00,
2013-04-08 07:12:00,64.0,61.0,-100.00,SSE,167,12.0,19.0,89,0.00,,,0.00,0.000000,,2013-04-08 12:12:00,
2013-04-08 07:23:00,64.0,61.0,-100.00,SSE,167,12.0,19.0,89,0.00,,,0.00,0.000000,,2013-04-08 12:23:00,
2013-04-08 07:33:00,64.0,61.0,-100.00,SSE,167,12.0,19.0,89,0.00,,,0.00,0.000000,,2013-04-08 12:33:00,
2013-04-08 08:03:00,64.0,61.0,-100.00,SSE,168,11.0,20.0,91,0.00,,,0.00,0.000000,,2013-04-08 13:03:00,
2013-04-08 08:12:00,64.0,61.0,-100.00,SSE,168,11.0,20.0,91,0.00,,,0.00,0.000000,,2013-04-08 13:12:00,
2013-04-08 08:22:00,64.0,61.0,-100.00,SSE,168,11.0,20.0,91,0.00,,,0.00,0.000000,,2013-04-08 13:22:00,
2013-04-08 08:32:00,64.0,61.0,-100.00,SSE,168,11.0,20.0,91,0.00,,,0.00,0.000000,,2013-04-08 13:32:00,
2013-04-08 09:03:00,64.0,62.0,-100.00,SSE,167,10.0,16.0,93,0.00,,,0.00,12.000000,,2013-04-08 14:03:00,
2013-04-08 09:12:00,64.0,62.0,-100.00,SSE,167,10.0,16.0,93,0.00,,,0.00,12.000000,,2013-04-08 14:12:00,
2013-04-08 09:22:00,64.0,62.0,-100.00,SSE,167,10.0,16.0,93,0.00,,,0.00,12.000000,,2013-04-08 14:22:00,
2013-04-08 09:32:00,64.0,62.0,-100.00,SSE,167,10.0,16.0,93,0.00,,,0.00,12.000000,,2013-04-08 14:32:00,
2013-04-08 10:02:00,65.0,63.0,-100.00,South,169,12.0,19.0,92,0.00,,,0.00,43.000000,,2013-04-08 15:02:00,
2013-04-08 10:12:00,65.0,63.0,-100.00,South,169,12.0,19.0,92,0.00,,,0.00,43.000000,,2013-04-08 15:12:00,
2013-04-08 10:22:00,65.0,63.0,-100.00,South,169,12.0,19.0,92,0.00,,,0.00,43.000000,,2013-04-08 15:22:00,
2013-04-08 10:33:00,65.0,63.0,-100.00,South,169,12.0,19.0,92,0.00,,,0.00,43.000000,,2013-04-08 15:33:00,
2013-04-08 11:03:00,66.0,64.0,-100.00,SSE,166,13.0,20.0,92,0.00,,,0.00,93.000000,,2013-04-08 16:03:00,
2013-04-08 11:13:00,66.0,64.0,-100.00,SSE,166,13.0,20.0,92,0.00,,,0.00,93.000000,,2013-04-08 16:13:00,
2013-04-08 11:23:00,66.0,64.0,-100.00,SSE,166,13.0,20.0,92,0.00,,,0.00,93.000000,,2013-04-08 16:23:00,
2013-04-08 11:32:00,66.0,64.0,-100.00,SSE,166,13.0,20.0,92,0.00,,,0.00,93.000000,,2013-04-08 16:32:00,
2013-04-08 12:03:00,69.0,64.0,-100.00,SSE,166,16.0,25.0,84,0.00,,,0.00,242.000000,,2013-04-08 17:03:00,
2013-04-08 12:12:00,69.0,64.0,-100.00,SSE,166,16.0,25.0,84,0.00,,,0.00,242.000000,,2013-04-08 17:12:00,
2013-04-08 12:22:00,69.0,64.0,-100.00,SSE,166,16.0,25.0,84,0.00,,,0.00,242.000000,,2013-04-08 17:22:00,
2013-04-08 12:32:00,69.0,64.0,-100.00,SSE,166,16.0,25.0,84,0.00,,,0.00,242.000000,,2013-04-08 17:32:00,
2013-04-08 13:02:00,70.0,64.0,-100.00,South,173,15.0,24.0,80,0.00,,,0.00,280.000000,,2013-04-08 18:02:00,
2013-04-08 13:12:00,70.0,64.0,-100.00,South,173,15.0,24.0,80,0.00,,,0.00,280.000000,,2013-04-08 18:12:00,
2013-04-08 13:23:00,70.0,64.0,-100.00,South,173,15.0,24.0,80,0.00,,,0.00,280.000000,,2013-04-08 18:23:00,
2013-04-08 13:32:00,70.0,64.0,-100.00,South,173,15.0,24.0,80,0.00,,,0.00,280.000000,,2013-04-08 18:32:00,
2013-04-08 13:52:00,68.0,64.0,-100.00,SSE,165,13.0,22.0,87,0.00,,,0.00,131.000000,,2013-04-08 18:52:00,
2013-04-08 14:02:00,68.0,64.0,-100.00,SSE,165,13.0,22.0,87,0.00,,,0.00,131.000000,,2013-04-08 19:02:00,
2013-04-08 14:12:00,68.0,64.0,-100.00,SSE,165,13.0,22.0,87,0.00,,,0.00,131.000000,,2013-04-08 19:12:00,
2013-04-08 14:23:00,68.0,64.0,-100.00,SSE,165,13.0,22.0,87,0.00,,,0.00,131.000000,,2013-04-08 19:23:00,
2013-04-08 14:33:00,68.0,64.0,-100.00,SSE,165,13.0,22.0,87,0.00,,,0.00,131.000000,,2013-04-08 19:33:00,
2013-04-08 14:52:00,67.0,66.0,-100.00,SSE,164,14.0,21.0,95,0.00,,,0.00,87.000000,,2013-04-08 19:52:00,
2013-04-08 15:02:00,67.0,66.0,-100.00,SSE,164,14.0,21.0,95,0.00,,,0.00,87.000000,,2013-04-08 20:02:00,
2013-04-08 15:12:00,67.0,66.0,-100.00,SSE,164,14.0,21.0,95,0.00,,,0.00,87.000000,,2013-04-08 20:12:00,
2013-04-08 15:22:00,67.0,66.0,-100.00,SSE,164,14.0,21.0,95,0.00,,,0.00,87.000000,,2013-04-08 20:22:00,
2013-04-08 15:33:00,67.0,66.0,-100.00,SSE,164,14.0,21.0,95,0.00,,,0.00,87.000000,,2013-04-08 20:33:00,
2013-04-08 16:02:00,68.0,65.0,-100.00,South,172,12.0,20.0,91,0.00,,,0.00,110.000000,,2013-04-08 21:02:00,
2013-04-08 16:12:00,68.0,65.0,-100.00,South,172,12.0,20.0,91,0.00,,,0.00,110.000000,,2013-04-08 21:12:00,
2013-04-08 16:22:00,68.0,65.0,-100.00,South,172,12.0,20.0,91,0.00,,,0.00,110.000000,,2013-04-08 21:22:00,
2013-04-08 16:32:00,68.0,65.0,-100.00,South,172,12.0,20.0,91,0.00,,,0.00,110.000000,,2013-04-08 21:32:00,
2013-04-08 17:03:00,68.0,65.0,-100.00,SSE,158,8.0,16.0,91,0.00,,,0.00,78.000000,,2013-04-08 22:03:00,
2013-04-08 17:13:00,68.0,65.0,-100.00,SSE,158,8.0,16.0,91,0.00,,,0.00,78.000000,,2013-04-08 22:13:00,
2013-04-08 17:23:00,68.0,65.0,-100.00,SSE,158,8.0,16.0,91,0.00,,,0.00,78.000000,,2013-04-08 22:23:00,
2013-04-08 17:32:00,68.0,65.0,-100.00,SSE,158,8.0,16.0,91,0.00,,,0.00,78.000000,,2013-04-08 22:32:00,
2013-04-08 18:02:00,70.0,66.0,-100.00,SSE,161,10.0,15.0,86,0.00,,,0.00,88.000000,,2013-04-08 23:02:00,
2013-04-08 18:12:00,70.0,66.0,-100.00,SSE,161,10.0,15.0,86,0.00,,,0.00,88.000000,,2013-04-08 23:12:00,
2013-04-08 18:22:00,70.0,66.0,-100.00,SSE,161,10.0,15.0,86,0.00,,,0.00,88.000000,,2013-04-08 23:22:00,
2013-04-08 18:32:00,70.0,66.0,-100.00,SSE,161,10.0,15.0,86,0.00,,,0.00,88.000000,,2013-04-08 23:32:00,
2013-04-08 19:02:00,71.0,64.0,-100.00,SSE,154,12.0,18.0,79,0.00,,,0.00,104.000000,,2013-04-09 00:02:00,
2013-04-08 19:12:00,71.0,64.0,-100.00,SSE,154,12.0,18.0,79,0.00,,,0.00,104.000000,,2013-04-09 00:12:00,
2013-04-08 19:22:00,71.0,64.0,-100.00,SSE,154,12.0,18.0,79,0.00,,,0.00,104.000000,,2013-04-09 00:22:00,
2013-04-08 19:32:00,71.0,64.0,-100.00,SSE,154,12.0,18.0,79,0.00,,,0.00,104.000000,,2013-04-09 00:32:00,
2013-04-08 20:02:00,70.0,63.0,-100.00,SSE,154,16.0,24.0,79,0.00,,,-99.99,37.000000,,2013-04-09 01:02:00,
2013-04-08 20:12:00,70.0,63.0,-100.00,SSE,154,16.0,24.0,79,0.00,,,-99.99,37.000000,,2013-04-09 01:12:00,
2013-04-08 20:22:00,70.0,63.0,-100.00,SSE,154,16.0,24.0,79,0.00,,,-99.99,37.000000,,2013-04-09 01:22:00,
2013-04-08 20:33:00,70.0,63.0,-100.00,SSE,154,16.0,24.0,79,0.00,,,-99.99,37.000000,,2013-04-09 01:33:00,
2013-04-08 21:02:00,69.0,63.0,-100.00,SSE,152,10.0,24.0,81,0.00,,,0.00,2.000000,,2013-04-09 02:02:00,
2013-04-08 21:13:00,69.0,63.0,-100.00,SSE,152,10.0,24.0,81,0.00,,,0.00,2.000000,,2013-04-09 02:13:00,
2013-04-08 21:22:00,69.0,63.0,-100.00,SSE,152,10.0,24.0,81,0.00,,,0.00,2.000000,,2013-04-09 02:22:00,
2013-04-08 21:32:00,69.0,63.0,-100.00,SSE,152,10.0,24.0,81,0.00,,,0.00,2.000000,,2013-04-09 02:32:00,
2013-04-08 22:02:00,69.0,63.0,-100.00,SSE,149,14.0,26.0,82,0.00,,,0.00,0.000000,,2013-04-09 03:02:00,
2013-04-08 22:12:00,69.0,63.0,-100.00,SSE,149,14.0,26.0,82,0.00,,,0.00,0.000000,,2013-04-09 03:12:00,
2013-04-08 22:21:00,69.0,63.0,-100.00,SSE,149,14.0,26.0,82,0.00,,,0.00,0.000000,,2013-04-09 03:21:00,
2013-04-08 22:33:00,69.0,63.0,-100.00,SSE,149,14.0,26.0,82,0.00,,,0.00,0.000000,,2013-04-09 03:33:00,
2013-04-08 23:03:00,68.0,64.0,-100.00,SSE,148,16.0,26.0,87,0.00,,,0.00,0.000000,,2013-04-09 04:03:00,
2013-04-08 23:13:00,68.0,64.0,-100.00,SSE,148,16.0,26.0,87,0.00,,,0.00,0.000000,,2013-04-09 04:13:00,
2013-04-08 23:23:00,68.0,64.0,-100.00,SSE,148,16.0,26.0,87,0.00,,,0.00,0.000000,,2013-04-09 04:23:00,
2013-04-08 23:32:00,68.0,64.0,-100.00,SSE,148,16.0,26.0,87,0.00,,,0.00,0.000000,,2013-04-09 04:32:00,